Time;durP1;ratioP1;P1;durP2;ratioP2;P2;SDS_P1;SDS_P2;PMS_P1;PMS_P2;Temp;Humidity;BMP_temperature;BMP_pressure;BME280_temperature;BME280_humidity;BME280_pressure;Samples;Min_cycle;Max_cycle;Signal;HPM_P1;HPM_P2
2024/04/20 00:01:52;;;;;;;2.33;1.50;;;;;;;;;;5583729;26;19988;-72
2024/04/20 00:04:22;;;;;;;3.00;1.67;;;;;;;;;;5587545;26;20004;-72
2024/04/20 00:06:52;;;;;;;2.30;1.50;;;;;;;;;;5584688;26;20088;-72
2024/04/20 00:09:22;;;;;;;4.28;2.00;;;;;;;;;;5579415;26;20002;-71
2024/04/20 00:11:53;;;;;;;3.07;1.70;;;;;;;;;;5583265;26;19991;-72
2024/04/20 00:14:23;;;;;;;4.83;1.60;;;;;;;;;;5588105;26;20217;-72
2024/04/20 00:16:55;;;;;;;3.07;1.67;;;;;;;;;;5584908;26;20366;-72
2024/04/20 00:19:25;;;;;;;3.13;1.70;;;;;;;;;;5586833;26;20003;-70
2024/04/20 00:21:55;;;;;;;4.17;1.77;;;;;;;;;;5586292;26;19995;-72
2024/04/20 00:24:25;;;;;;;2.15;1.45;;;;;;;;;;5584113;26;20270;-69
2024/04/20 00:26:56;;;;;;;2.13;1.40;;;;;;;;;;5585480;26;20434;-72
2024/04/20 00:29:26;;;;;;;4.47;1.53;;;;;;;;;;5586054;26;20209;-69
2024/04/20 00:31:56;;;;;;;2.72;1.30;;;;;;;;;;5586323;26;20003;-72
2024/04/20 00:34:27;;;;;;;2.40;1.30;;;;;;;;;;5586145;26;19991;-70
2024/04/20 00:36:57;;;;;;;2.70;1.37;;;;;;;;;;5584359;26;20221;-72
2024/04/20 00:39:27;;;;;;;2.63;1.40;;;;;;;;;;5569381;26;20003;-70
2024/04/20 00:41:57;;;;;;;3.17;1.57;;;;;;;;;;5585504;26;19995;-72
2024/04/20 00:44:28;;;;;;;3.13;1.45;;;;;;;;;;5584446;26;20447;-70
2024/04/20 00:47:02;;;;;;;1.63;1.30;;;;;;;;;;5585219;26;19991;-70
2024/04/20 00:49:32;;;;;;;3.35;1.50;;;;;;;;;;5586548;26;20241;-70
2024/04/20 00:52:04;;;;;;;1.67;1.20;;;;;;;;;;5585362;26;20002;-70
2024/04/20 00:54:35;;;;;;;2.92;1.50;;;;;;;;;;5583375;26;19991;-70
2024/04/20 00:57:06;;;;;;;2.47;1.40;;;;;;;;;;5586386;26;20306;-73
2024/04/20 00:59:36;;;;;;;1.98;1.25;;;;;;;;;;5583854;26;19995;-72
2024/04/20 01:02:08;;;;;;;2.05;1.45;;;;;;;;;;5585989;26;20524;-72
2024/04/20 01:04:38;;;;;;;2.40;1.40;;;;;;;;;;5582661;26;20577;-72
2024/04/20 01:07:08;;;;;;;3.15;1.60;;;;;;;;;;5584019;26;20045;-69
2024/04/20 01:09:39;;;;;;;4.67;1.40;;;;;;;;;;5584432;26;19988;-69
2024/04/20 01:12:09;;;;;;;2.78;1.30;;;;;;;;;;5585973;26;19987;-70
2024/04/20 01:14:40;;;;;;;2.10;1.20;;;;;;;;;;5583998;26;19984;-69
2024/04/20 01:17:11;;;;;;;3.78;1.40;;;;;;;;;;5585330;26;20039;-70
2024/04/20 01:19:41;;;;;;;2.42;1.50;;;;;;;;;;5584909;26;19999;-71
2024/04/20 01:22:12;;;;;;;2.33;1.30;;;;;;;;;;5585173;26;20047;-71
2024/04/20 01:24:43;;;;;;;2.38;1.40;;;;;;;;;;5584281;26;20363;-69
2024/04/20 01:27:13;;;;;;;4.18;1.45;;;;;;;;;;5584811;26;20010;-69
2024/04/20 01:29:43;;;;;;;1.70;1.30;;;;;;;;;;5583960;26;20528;-68
2024/04/20 01:32:13;;;;;;;2.23;1.27;;;;;;;;;;5585696;26;20229;-70
2024/04/20 01:34:44;;;;;;;2.35;1.35;;;;;;;;;;5583420;26;20319;-69
2024/04/20 01:37:14;;;;;;;1.60;1.25;;;;;;;;;;5586562;26;20066;-71
2024/04/20 01:39:44;;;;;;;4.10;1.43;;;;;;;;;;5586168;26;20093;-70
2024/04/20 01:42:14;;;;;;;2.50;1.30;;;;;;;;;;5589644;26;20350;-71
2024/04/20 01:44:44;;;;;;;2.00;1.30;;;;;;;;;;5587027;26;19995;-69
2024/04/20 01:47:15;;;;;;;2.47;1.38;;;;;;;;;;5588866;26;19983;-71
2024/04/20 01:49:45;;;;;;;2.73;1.47;;;;;;;;;;5587912;26;20064;-72
2024/04/20 01:52:15;;;;;;;2.40;1.60;;;;;;;;;;5588925;26;20245;-72
2024/04/20 01:54:45;;;;;;;2.37;1.30;;;;;;;;;;5586674;26;20221;-72
2024/04/20 01:57:15;;;;;;;2.63;1.50;;;;;;;;;;5589077;26;20478;-71
2024/04/20 01:59:45;;;;;;;3.20;1.40;;;;;;;;;;5587842;26;19998;-71
2024/04/20 02:02:16;;;;;;;2.13;1.50;;;;;;;;;;5589355;26;20442;-71
2024/04/20 02:04:46;;;;;;;3.72;1.58;;;;;;;;;;5586485;26;20056;-72
2024/04/20 02:07:16;;;;;;;2.40;1.60;;;;;;;;;;5589375;26;19991;-71
2024/04/20 02:09:46;;;;;;;2.80;2.00;;;;;;;;;;5580214;26;19984;-72
2024/04/20 02:12:16;;;;;;;2.83;2.10;;;;;;;;;;5588879;26;19983;-73
2024/04/20 02:14:47;;;;;;;2.80;1.80;;;;;;;;;;5587044;26;20268;-71
2024/04/20 02:17:17;;;;;;;3.30;2.07;;;;;;;;;;5588720;26;20206;-71
2024/04/20 02:19:47;;;;;;;3.53;2.23;;;;;;;;;;5583648;26;20277;-69
2024/04/20 02:22:17;;;;;;;4.00;2.70;;;;;;;;;;5586888;26;20638;-71
2024/04/20 02:24:47;;;;;;;4.13;2.50;;;;;;;;;;5583638;26;19984;-71
2024/04/20 02:27:18;;;;;;;3.13;2.40;;;;;;;;;;5585062;26;20064;-72
2024/04/20 02:29:48;;;;;;;4.25;2.50;;;;;;;;;;5583828;26;20002;-71
2024/04/20 02:32:18;;;;;;;3.03;2.07;;;;;;;;;;5587172;26;20011;-72
2024/04/20 02:34:49;;;;;;;3.80;2.47;;;;;;;;;;5583080;26;19994;-70
2024/04/20 02:37:19;;;;;;;4.82;2.70;;;;;;;;;;5586106;26;19992;-70
2024/04/20 02:39:49;;;;;;;3.83;2.50;;;;;;;;;;5580334;26;20525;-72
2024/04/20 02:42:19;;;;;;;3.83;2.50;;;;;;;;;;5585456;26;20740;-71
2024/04/20 02:44:50;;;;;;;4.10;2.50;;;;;;;;;;5583472;26;20221;-71
2024/04/20 02:47:20;;;;;;;3.83;2.97;;;;;;;;;;5586600;26;19987;-73
2024/04/20 02:49:52;;;;;;;4.47;2.70;;;;;;;;;;5583427;26;19980;-71
2024/04/20 02:52:22;;;;;;;4.95;2.55;;;;;;;;;;5579937;26;19988;-72
2024/04/20 02:54:52;;;;;;;4.00;2.53;;;;;;;;;;5586694;26;20002;-71
2024/04/20 02:57:22;;;;;;;5.70;2.30;;;;;;;;;;5587397;26;19991;-71
2024/04/20 02:59:53;;;;;;;4.93;2.67;;;;;;;;;;5585538;26;20342;-71
2024/04/20 03:02:23;;;;;;;3.67;2.30;;;;;;;;;;5585420;26;19983;-70
2024/04/20 03:04:53;;;;;;;5.23;2.70;;;;;;;;;;5586556;26;19992;-69
2024/04/20 03:07:25;;;;;;;6.33;2.47;;;;;;;;;;5588612;26;20503;-70
2024/04/20 03:09:55;;;;;;;3.55;2.63;;;;;;;;;;5586346;26;19991;-71
2024/04/20 03:12:26;;;;;;;3.33;2.47;;;;;;;;;;5588573;26;20006;-71
2024/04/20 03:14:57;;;;;;;3.53;2.40;;;;;;;;;;5584662;26;20003;-71
2024/04/20 03:17:27;;;;;;;5.18;2.60;;;;;;;;;;5583979;26;19983;-73
2024/04/20 03:19:57;;;;;;;4.80;2.60;;;;;;;;;;5580351;26;20007;-71
2024/04/20 03:22:27;;;;;;;4.23;2.40;;;;;;;;;;5583918;26;19995;-72
2024/04/20 03:24:57;;;;;;;4.60;2.70;;;;;;;;;;5583902;26;20384;-73
2024/04/20 03:27:27;;;;;;;4.73;2.70;;;;;;;;;;5588810;26;19999;-72
2024/04/20 03:29:58;;;;;;;3.27;2.13;;;;;;;;;;5587149;26;19991;-72
2024/04/20 03:32:28;;;;;;;6.10;2.70;;;;;;;;;;5585759;26;20225;-73
2024/04/20 03:34:58;;;;;;;3.83;2.53;;;;;;;;;;5586236;26;20517;-72
2024/04/20 03:37:28;;;;;;;4.07;2.60;;;;;;;;;;5586942;26;19999;-72
2024/04/20 03:39:58;;;;;;;4.53;2.50;;;;;;;;;;5579162;26;20011;-73
2024/04/20 03:42:28;;;;;;;3.33;2.33;;;;;;;;;;5587843;26;19984;-72
2024/04/20 03:44:59;;;;;;;4.00;2.30;;;;;;;;;;5585197;26;20095;-72
2024/04/20 03:47:29;;;;;;;5.00;2.33;;;;;;;;;;5587402;26;19980;-72
2024/04/20 03:49:59;;;;;;;5.20;2.73;;;;;;;;;;5586063;26;20634;-71
2024/04/20 03:52:30;;;;;;;4.83;2.50;;;;;;;;;;5585705;26;20050;-71
2024/04/20 03:55:00;;;;;;;4.05;2.20;;;;;;;;;;5586194;26;19991;-71
2024/04/20 03:57:30;;;;;;;5.57;2.42;;;;;;;;;;5587456;26;20369;-71
2024/04/20 04:00:00;;;;;;;6.32;2.00;;;;;;;;;;5583436;26;20256;-70
2024/04/20 04:02:30;;;;;;;3.53;1.92;;;;;;;;;;5586836;26;19998;-71
2024/04/20 04:05:01;;;;;;;3.47;1.97;;;;;;;;;;5585696;26;21923;-68
2024/04/20 04:07:31;;;;;;;5.00;2.50;;;;;;;;;;5587912;26;20764;-71
2024/04/20 04:10:01;;;;;;;3.77;2.30;;;;;;;;;;5578384;26;20755;-70
2024/04/20 04:12:31;;;;;;;5.10;2.38;;;;;;;;;;5586848;26;20015;-71
2024/04/20 04:15:01;;;;;;;5.37;2.60;;;;;;;;;;5581818;26;19991;-70
2024/04/20 04:17:32;;;;;;;4.10;2.10;;;;;;;;;;5584981;26;20342;-71
2024/04/20 04:20:02;;;;;;;4.57;2.10;;;;;;;;;;5582366;26;19995;-72
2024/04/20 04:22:32;;;;;;;4.43;2.25;;;;;;;;;;5582602;26;19988;-72
2024/04/20 04:25:03;;;;;;;9.50;2.57;;;;;;;;;;5578862;26;20010;-71
2024/04/20 04:27:33;;;;;;;7.57;2.70;;;;;;;;;;5585242;26;20064;-72
2024/04/20 04:30:04;;;;;;;4.90;2.53;;;;;;;;;;5582558;26;20028;-72
2024/04/20 04:32:35;;;;;;;6.43;2.55;;;;;;;;;;5585110;26;20807;-71
2024/04/20 04:35:05;;;;;;;3.38;2.10;;;;;;;;;;5581676;26;20003;-70
2024/04/20 04:37:35;;;;;;;3.38;1.88;;;;;;;;;;5585210;26;20462;-72
2024/04/20 04:40:05;;;;;;;4.27;2.23;;;;;;;;;;5582751;26;19983;-70
2024/04/20 04:42:36;;;;;;;5.22;2.45;;;;;;;;;;5585528;26;20595;-70
2024/04/20 04:45:06;;;;;;;4.10;2.25;;;;;;;;;;5583305;26;19992;-70
2024/04/20 04:47:37;;;;;;;6.22;2.55;;;;;;;;;;5586508;26;20003;-72
2024/04/20 04:50:07;;;;;;;5.23;2.60;;;;;;;;;;5582137;26;20447;-72
2024/04/20 04:52:37;;;;;;;5.10;2.80;;;;;;;;;;5585755;26;20217;-72
2024/04/20 04:55:08;;;;;;;6.00;2.95;;;;;;;;;;5581825;26;20277;-71
2024/04/20 04:57:38;;;;;;;5.53;2.80;;;;;;;;;;5583653;26;20393;-72
2024/04/20 05:00:09;;;;;;;4.97;3.10;;;;;;;;;;5582289;26;19999;-71
2024/04/20 05:02:39;;;;;;;4.75;3.00;;;;;;;;;;5585237;26;20344;-70
2024/04/20 05:05:09;;;;;;;4.68;3.40;;;;;;;;;;5581586;26;20281;-71
2024/04/20 05:07:39;;;;;;;5.30;3.20;;;;;;;;;;5584484;26;19983;-71
2024/04/20 05:10:10;;;;;;;5.75;3.47;;;;;;;;;;5582651;26;20486;-72
2024/04/20 05:12:40;;;;;;;9.40;3.60;;;;;;;;;;5577679;26;19996;-72
2024/04/20 05:15:10;;;;;;;7.37;3.30;;;;;;;;;;5577731;26;20242;-71
2024/04/20 05:17:40;;;;;;;6.40;4.00;;;;;;;;;;5575987;26;19980;-71
2024/04/20 05:20:12;;;;;;;6.87;3.30;;;;;;;;;;5578378;26;19995;-70
2024/04/20 05:22:42;;;;;;;4.90;3.38;;;;;;;;;;5575534;26;19999;-69
2024/04/20 05:25:13;;;;;;;5.45;3.42;;;;;;;;;;5583719;26;19995;-71
2024/04/20 05:27:43;;;;;;;6.43;3.55;;;;;;;;;;5584404;26;20098;-70
2024/04/20 05:30:13;;;;;;;5.13;3.30;;;;;;;;;;5570364;26;20022;-71
2024/04/20 05:32:43;;;;;;;5.10;3.23;;;;;;;;;;5581704;26;20446;-71
2024/04/20 05:35:13;;;;;;;6.53;3.37;;;;;;;;;;5524492;21;20252;-74
2024/04/20 05:37:44;;;;;;;6.07;3.20;;;;;;;;;;5476322;26;20244;-71
2024/04/20 05:40:14;;;;;;;5.23;3.20;;;;;;;;;;5477004;26;20343;-74
2024/04/20 05:42:44;;;;;;;4.93;3.57;;;;;;;;;;5481622;26;20595;-71
2024/04/20 05:45:18;;;;;;;6.13;3.50;;;;;;;;;;5479014;26;20075;-74
2024/04/20 05:47:48;;;;;;;6.80;3.40;;;;;;;;;;5482526;26;20013;-73
2024/04/20 05:50:18;;;;;;;7.10;3.15;;;;;;;;;;5476893;26;20406;-73
2024/04/20 05:52:48;;;;;;;5.73;3.50;;;;;;;;;;5478534;26;19986;-75
2024/04/20 05:55:18;;;;;;;6.27;3.37;;;;;;;;;;5483860;26;19994;-73
2024/04/20 05:57:49;;;;;;;6.15;3.42;;;;;;;;;;5469813;26;20600;-74
2024/04/20 06:00:19;;;;;;;4.32;3.13;;;;;;;;;;5477847;26;20456;-73
2024/04/20 06:02:49;;;;;;;7.77;3.13;;;;;;;;;;5477042;26;19986;-73
2024/04/20 06:05:19;;;;;;;6.37;3.50;;;;;;;;;;5478106;26;20270;-72
2024/04/20 06:07:50;;;;;;;5.87;3.30;;;;;;;;;;5466901;26;20236;-72
2024/04/20 06:10:20;;;;;;;6.40;3.30;;;;;;;;;;5474004;26;20232;-75
2024/04/20 06:12:50;;;;;;;7.13;3.67;;;;;;;;;;5483957;26;20271;-74
2024/04/20 06:15:20;;;;;;;7.20;3.10;;;;;;;;;;5490771;26;20211;-73
2024/04/20 06:17:50;;;;;;;6.50;3.50;;;;;;;;;;5445754;26;19994;-73
2024/04/20 06:20:20;;;;;;;5.40;3.40;;;;;;;;;;5479025;26;20416;-73
2024/04/20 06:22:51;;;;;;;5.50;3.40;;;;;;;;;;5472001;26;20236;-73
2024/04/20 06:25:21;;;;;;;5.63;3.33;;;;;;;;;;5495296;26;20286;-74
2024/04/20 06:27:51;;;;;;;5.00;2.97;;;;;;;;;;5469885;26;20452;-73
2024/04/20 06:30:21;;;;;;;5.83;3.03;;;;;;;;;;5445780;26;19993;-73
2024/04/20 06:32:51;;;;;;;4.33;2.90;;;;;;;;;;5485358;26;19998;-74
2024/04/20 06:35:22;;;;;;;5.45;2.97;;;;;;;;;;5486899;26;20000;-73
2024/04/20 06:37:52;;;;;;;4.37;3.00;;;;;;;;;;5474316;26;19996;-74
2024/04/20 06:40:22;;;;;;;7.35;3.10;;;;;;;;;;5492190;26;19996;-73
2024/04/20 06:42:54;;;;;;;7.80;2.92;;;;;;;;;;5479890;26;20004;-73
2024/04/20 06:45:24;;;;;;;4.28;2.70;;;;;;;;;;5484999;26;20338;-71
2024/04/20 06:47:57;;;;;;;4.53;2.77;;;;;;;;;;5470933;26;20540;-73
2024/04/20 06:50:27;;;;;;;5.32;3.10;;;;;;;;;;5484867;26;20314;-73
2024/04/20 06:52:57;;;;;;;5.63;3.00;;;;;;;;;;5477456;26;19993;-76
2024/04/20 06:55:27;;;;;;;4.03;2.92;;;;;;;;;;5482169;26;20236;-72
2024/04/20 06:57:58;;;;;;;5.10;2.40;;;;;;;;;;5475616;26;19997;-70
2024/04/20 07:00:28;;;;;;;3.97;2.60;;;;;;;;;;5481950;26;20468;-71
2024/04/20 07:02:58;;;;;;;7.03;2.70;;;;;;;;;;5479278;26;19993;-71
2024/04/20 07:05:28;;;;;;;4.57;2.43;;;;;;;;;;5470883;26;20216;-72
2024/04/20 07:07:59;;;;;;;4.20;2.37;;;;;;;;;;5473950;26;20583;-72
2024/04/20 07:10:29;;;;;;;7.55;2.53;;;;;;;;;;5485069;26;20224;-71
2024/04/20 07:12:59;;;;;;;5.37;2.57;;;;;;;;;;5480353;26;20449;-73
2024/04/20 07:15:30;;;;;;;5.23;2.70;;;;;;;;;;5477463;26;20236;-71
2024/04/20 07:18:00;;;;;;;4.22;2.67;;;;;;;;;;5467976;26;20220;-73
2024/04/20 07:20:32;;;;;;;3.37;2.27;;;;;;;;;;5476428;26;20419;-70
2024/04/20 07:23:03;;;;;;;3.65;2.30;;;;;;;;;;5443583;26;19995;-73
2024/04/20 07:25:33;;;;;;;4.70;2.30;;;;;;;;;;5479853;26;19996;-72
2024/04/20 07:28:03;;;;;;;4.73;2.27;;;;;;;;;;5445894;26;21071;-71
2024/04/20 07:30:33;;;;;;;3.72;2.40;;;;;;;;;;5479183;26;19986;-72
2024/04/20 07:33:03;;;;;;;3.70;2.10;;;;;;;;;;5478796;26;20005;-72
2024/04/20 07:35:34;;;;;;;4.27;2.50;;;;;;;;;;5479660;26;19985;-72
2024/04/20 07:38:04;;;;;;;4.82;2.90;;;;;;;;;;5462574;26;20252;-71
2024/04/20 07:40:35;;;;;;;5.00;2.83;;;;;;;;;;5480185;26;20426;-73
2024/04/20 07:43:05;;;;;;;4.40;2.45;;;;;;;;;;5470694;26;20029;-70
2024/04/20 07:45:35;;;;;;;5.80;2.63;;;;;;;;;;5449428;26;20048;-71
2024/04/20 07:48:06;;;;;;;4.63;2.23;;;;;;;;;;5473089;26;20619;-70
2024/04/20 07:50:37;;;;;;;5.50;2.53;;;;;;;;;;5484236;26;19989;-72
2024/04/20 07:53:07;;;;;;;4.68;2.45;;;;;;;;;;5471409;26;20050;-69
2024/04/20 07:55:37;;;;;;;4.50;2.70;;;;;;;;;;5479468;26;19998;-72
2024/04/20 07:58:08;;;;;;;3.77;2.17;;;;;;;;;;5467199;26;20358;-70
2024/04/20 08:00:38;;;;;;;11.60;5.97;;;;;;;;;;5478075;26;19982;-71
2024/04/20 08:03:08;;;;;;;10.17;4.40;;;;;;;;;;5475748;26;19993;-70
2024/04/20 08:05:38;;;;;;;9.63;4.70;;;;;;;;;;5479792;26;19986;-71
2024/04/20 08:08:08;;;;;;;16.63;9.13;;;;;;;;;;5472979;26;20604;-69
2024/04/20 08:10:38;;;;;;;10.63;6.37;;;;;;;;;;5485457;26;20087;-72
2024/04/20 08:13:09;;;;;;;7.03;4.10;;;;;;;;;;5469445;26;20253;-69
2024/04/20 08:16:33;;;;;;;9.00;4.28;;;;;;;6.17;88.95;100716.66;5715138;25;20801;-73
2024/04/20 08:19:04;;;;;;;9.88;2.90;;;;;;;6.35;89.34;100704.03;5714242;25;20005;-74
2024/04/20 08:21:34;;;;;;;6.68;3.38;;;;;;;6.44;88.00;100711.59;5717408;25;20381;-73
2024/04/20 08:24:04;;;;;;;9.40;3.97;;;;;;;6.42;87.39;100717.75;5704613;25;20373;-74
2024/04/20 08:26:35;;;;;;;6.47;3.28;;;;;;;6.50;88.11;100732.31;5676992;25;20006;-72
2024/04/20 08:29:05;;;;;;;6.70;2.88;;;;;;;6.25;86.98;100741.63;5677837;25;20008;-73
2024/04/20 08:31:35;;;;;;;22.58;6.47;;;;;;;6.22;87.99;100736.47;5678834;25;20469;-73
2024/04/20 08:34:05;;;;;;;7.97;4.10;;;;;;;6.04;88.92;100738.66;5676610;25;19994;-73
2024/04/20 08:36:36;;;;;;;10.57;4.35;;;;;;;6.03;88.96;100740.44;5677589;25;20540;-74
2024/04/20 08:39:06;;;;;;;5.25;3.30;;;;;;;5.92;88.88;100747.63;5676469;25;20001;-74
2024/04/20 08:41:45;;;;;;;124.03;14.00;;;;;;;6.29;90.68;100742.41;5678041;26;20004;-73
2024/04/20 08:44:19;;;;;;;12.40;5.75;;;;;;;6.78;88.54;100748.06;5676650;25;20004;-73
2024/04/20 08:46:52;;;;;;;11.10;4.82;;;;;;;7.00;85.78;100750.91;5677578;25;20026;-73
2024/04/20 08:49:25;;;;;;;11.68;4.60;;;;;;;7.42;87.26;100751.44;5673443;25;19994;-74
2024/04/20 08:51:55;;;;;;;6.82;3.00;;;;;;;7.57;86.52;100751.84;5674563;25;19994;-73
2024/04/20 08:54:27;;;;;;;9.65;5.55;;;;;;;7.56;85.02;100751.88;5677305;25;20348;-71
2024/04/20 08:57:01;;;;;;;18.25;9.82;;;;;;;7.35;83.84;100755.97;5676299;25;20000;-74
2024/04/20 08:59:31;;;;;;;51.90;33.83;;;;;;;7.52;84.66;100760.72;5678069;25;19994;-73
2024/04/20 09:02:05;;;;;;;5.47;3.28;;;;;;;7.58;83.34;100760.53;5676702;25;20051;-74
2024/04/20 09:04:36;;;;;;;6.53;3.70;;;;;;;7.69;83.50;100772.34;5677440;25;20001;-73
2024/04/20 09:07:06;;;;;;;6.18;3.40;;;;;;;7.88;81.02;100765.69;5675021;25;20055;-74
2024/04/20 09:09:39;;;;;;;52.67;5.55;;;;;;;9.62;77.13;100755.22;5675981;25;20002;-73
2024/04/20 09:12:09;;;;;;;22.15;3.30;;;;;;;12.50;68.46;100743.19;5676477;25;20071;-74
2024/04/20 09:14:39;;;;;;;11.70;2.53;;;;;;;-141.15;100.00;60025.94;5677355;25;20541;-73
2024/04/20 09:17:10;;;;;;;4.68;1.77;;;;;;;-141.15;100.00;60025.94;5676030;25;20005;-72
2024/04/20 09:19:40;;;;;;;8.38;2.15;;;;;;;-141.15;100.00;60025.94;5677915;25;20029;-74
2024/04/20 09:22:12;;;;;;;6.45;3.28;;;;;;;12.70;nan;100751.78;5677671;25;20001;-75
2024/04/20 09:24:42;;;;;;;5.13;2.42;;;;;;;10.71;nan;100760.38;5676090;25;20010;-71
2024/04/20 09:27:13;;;;;;;5.28;2.13;;;;;;;10.29;nan;100771.75;5665473;25;20479;-75
2024/04/20 09:29:44;;;;;;;6.03;4.05;;;;;;;10.59;nan;100774.00;5659521;26;20091;-73
2024/04/20 09:32:14;;;;;;;5.53;2.40;;;;;;;11.10;nan;100766.56;5659708;26;20362;-75
2024/04/20 09:34:45;;;;;;;3.50;2.42;;;;;;;10.73;nan;100766.44;5659455;26;19998;-72
2024/04/20 09:37:15;;;;;;;5.45;1.98;;;;;;;11.15;nan;100761.94;5661336;26;20720;-72
2024/04/20 09:39:45;;;;;;;4.03;1.60;;;;;;;-141.15;100.00;60025.94;5659098;26;20038;-73
2024/04/20 09:42:17;;;;;;;4.47;1.77;;;;;;;-141.15;100.00;60025.94;5661621;26;19990;-74
2024/04/20 09:44:49;;;;;;;4.07;2.78;;;;;;;-141.15;100.00;60025.94;5659502;26;19990;-74
2024/04/20 09:47:24;;;;;;;2.55;1.90;;;;;;;-141.15;100.00;60025.94;5659636;26;20070;-73
2024/04/20 09:49:56;;;;;;;2.63;1.57;;;;;;;-141.15;100.00;60025.94;5650385;26;20002;-73
2024/04/20 09:52:39;;;;;;;4.55;1.70;;;;;;;-141.15;100.00;60025.94;5653112;26;20633;-71
2024/04/20 09:55:21;;;;;;;3.33;2.13;;;;;;;-141.15;100.00;60025.94;5652099;26;20073;-74
2024/04/20 09:57:53;;;;;;;2.13;1.33;;;;;;;8.20;nan;100777.75;5654203;26;20038;-73
2024/04/20 10:00:24;;;;;;;2.88;1.55;;;;;;;8.42;nan;100786.63;5651367;26;20099;-72
2024/04/20 10:02:56;;;;;;;2.00;1.13;;;;;;;8.46;nan;100786.47;5654248;26;20033;-72
2024/04/20 10:05:30;;;;;;;3.72;1.65;;;;;;;8.74;nan;100788.09;5648020;26;20016;-72
2024/04/20 10:08:02;;;;;;;6.65;1.60;;;;;;;9.21;nan;100792.53;5657732;26;19998;-73
2024/04/20 10:10:33;;;;;;;3.33;1.73;;;;;;;8.46;nan;100796.06;5654633;25;20709;-73
2024/04/20 10:13:05;;;;;;;2.78;1.73;;;;;;;8.12;nan;100803.25;5655437;26;20108;-74
2024/04/20 10:15:36;;;;;;;3.63;1.52;;;;;;;8.22;nan;100792.47;5656662;26;20010;-74
2024/04/20 10:18:07;;;;;;;8.65;5.70;;;;;;;8.09;nan;100803.38;5657910;26;20009;-75
2024/04/20 10:20:38;;;;;;;2.92;1.38;;;;;;;7.80;nan;100808.59;5657319;26;20462;-73
2024/04/20 10:23:14;;;;;;;14.25;9.13;;;;;;;8.38;nan;100798.91;5656314;26;19995;-71
2024/04/20 10:25:49;;;;;;;35.30;23.52;;;;;;;8.54;nan;100805.34;5655407;26;19998;-72
2024/04/20 10:28:23;;;;;;;19.53;13.83;;;;;;;8.80;nan;100793.13;5655548;26;20067;-74
2024/04/20 10:30:58;;;;;;;7.03;4.40;;;;;;;9.36;nan;100794.63;5658419;26;20005;-74
2024/04/20 10:33:35;;;;;;;7.40;4.35;;;;;;;10.13;nan;100791.69;5657436;26;20515;-74
2024/04/20 10:36:14;;;;;;;3.70;1.55;;;;;;;9.99;nan;100786.13;5657718;26;20006;-75
2024/04/20 10:38:45;;;;;;;2.90;1.20;;;;;;;9.99;nan;100786.94;5655654;26;20005;-72
2024/04/20 10:41:19;;;;;;;3.17;1.30;;;;;;;9.79;nan;100779.00;5659845;26;20006;-74
2024/04/20 10:43:50;;;;;;;2.47;1.20;;;;;;;9.32;nan;100777.31;5658792;26;20014;-74
2024/04/20 10:46:22;;;;;;;6.47;4.13;;;;;;;9.67;nan;100789.94;5660098;26;20013;-74
2024/04/20 10:48:54;;;;;;;3.85;2.35;;;;;;;9.71;nan;100794.19;5659606;26;20016;-75
2024/04/20 10:51:26;;;;;;;4.93;1.60;;;;;;;9.77;nan;100786.09;5658960;26;20002;-72
2024/04/20 10:54:01;;;;;;;3.70;1.40;;;;;;;9.44;nan;100792.59;5655251;26;20067;-72
2024/04/20 10:56:35;;;;;;;3.95;1.77;;;;;;;9.55;nan;100795.66;5659403;26;20038;-75
2024/04/20 10:59:06;;;;;;;3.90;1.33;;;;;;;9.18;nan;100800.47;5657883;26;20017;-75
2024/04/20 11:01:39;;;;;;;2.95;2.15;;;;;;;9.33;nan;100794.72;5659811;26;20018;-74
2024/04/20 11:04:10;;;;;;;4.32;1.40;;;;;;;8.64;nan;100801.53;5656764;26;19990;-74
2024/04/20 11:06:41;;;;;;;2.97;1.30;;;;;;;8.49;nan;100811.63;5659338;26;19998;-73
2024/04/20 11:09:12;;;;;;;3.75;1.70;;;;;;;7.88;nan;100822.31;5657413;26;20009;-74
2024/04/20 11:11:42;;;;;;;1.88;1.25;;;;;;;7.79;nan;100823.44;5658416;26;20658;-71
2024/04/20 11:14:17;;;;;;;2.15;1.25;;;;;;;7.87;nan;100828.44;5659385;26;20065;-73
2024/04/20 11:16:48;;;;;;;2.23;1.50;;;;;;;6.82;nan;100826.16;5656676;26;20695;-74
2024/04/20 11:19:19;;;;;;;2.28;1.48;;;;;;;6.99;nan;100823.97;5656600;26;19995;-74
2024/04/20 11:21:50;;;;;;;3.47;1.50;;;;;;;7.05;nan;100819.41;5653685;26;20012;-74
2024/04/20 11:24:20;;;;;;;5.30;1.70;;;;;;;7.48;nan;100817.34;5659721;26;20348;-75
2024/04/20 11:27:08;;;;;;;3.95;1.50;;;;;;;7.32;nan;100823.06;5649409;26;20110;-74
2024/04/20 11:29:39;;;;;;;2.63;1.60;;;;;;;7.93;nan;100823.88;5659927;26;20002;-73
2024/04/20 11:32:18;;;;;;;3.40;1.60;;;;;;;7.87;nan;100826.66;5660327;26;20093;-73
2024/04/20 11:34:53;;;;;;;2.70;1.40;;;;;;;7.59;nan;100830.97;5623155;21;20450;-72
2024/04/20 11:37:23;;;;;;;2.42;1.52;;;;;;;7.83;nan;100834.66;5510220;26;20001;-72
2024/04/20 11:40:11;;;;;;;4.72;1.70;;;;;;;-141.15;100.00;60025.94;5511609;26;20344;-71
2024/04/20 11:42:43;;;;;;;4.13;1.70;;;;;;;-141.15;100.00;60025.94;5509413;26;20001;-73
2024/04/20 11:45:16;;;;;;;2.65;1.50;;;;;;;-141.15;100.00;60025.94;5512179;26;20005;-71
2024/04/20 11:47:47;;;;;;;3.63;1.50;;;;;;;-141.15;100.00;60025.94;5513014;26;20019;-72
2024/04/20 11:50:17;;;;;;;2.85;1.55;;;;;;;-141.15;100.00;60025.94;5511599;26;20009;-70
2024/04/20 11:55:44;;;;;;;4.10;1.57;;;;;;;-141.15;100.00;60025.94;5508153;26;20311;-72
2024/04/20 11:58:14;;;;;;;2.45;1.10;;;;;;;-141.15;100.00;60025.94;5506795;26;19997;-71
2024/04/20 12:00:47;;;;;;;3.78;1.40;;;;;;;-141.15;100.00;60025.94;5509463;26;20419;-71
2024/04/20 12:03:18;;;;;;;2.92;1.52;;;;;;;-141.15;100.00;60025.94;5511357;26;20012;-71
2024/04/20 12:05:48;;;;;;;3.20;1.40;;;;;;;-141.15;100.00;60025.94;5479567;26;20036;-71
2024/04/20 12:08:18;;;;;;;3.10;1.30;;;;;;;-141.15;100.00;60025.94;5509014;26;20456;-71
2024/04/20 12:10:49;;;;;;;3.72;1.38;;;;;;;-141.15;100.00;60025.94;5512168;26;20001;-71
2024/04/20 12:13:20;;;;;;;25.75;13.50;;;;;;;-141.15;100.00;60025.94;5511134;26;19997;-71
2024/04/20 12:15:51;;;;;;;2.67;1.50;;;;;;;-141.15;100.00;60025.94;5510317;26;20005;-72
2024/04/20 12:18:22;;;;;;;3.85;1.45;;;;;;;-141.15;100.00;60025.94;5482589;26;20016;-72
2024/04/20 12:20:52;;;;;;;3.03;1.38;;;;;;;-141.15;100.00;60025.94;5512018;26;20017;-71
2024/04/20 12:23:22;;;;;;;2.10;1.30;;;;;;;-141.15;100.00;60025.94;5505142;26;20492;-71
2024/04/20 12:25:53;;;;;;;2.38;1.48;;;;;;;-141.15;100.00;60025.94;5512197;26;20005;-73
2024/04/20 12:28:23;;;;;;;3.17;1.48;;;;;;;-141.15;100.00;60025.94;5508729;26;19997;-74
2024/04/20 12:30:53;;;;;;;3.60;1.63;;;;;;;-141.15;100.00;60025.94;5499262;26;20011;-70
2024/04/20 12:33:23;;;;;;;4.40;1.40;;;;;;;-141.15;100.00;60025.94;5499213;26;20527;-73
2024/04/20 12:35:54;;;;;;;2.35;1.35;;;;;;;-141.15;100.00;60025.94;5445523;26;20069;-72
2024/04/20 12:38:26;;;;;;;2.72;1.52;;;;;;;-141.15;100.00;60025.94;5495749;26;20002;-71
2024/04/20 12:40:56;;;;;;;4.00;1.58;;;;;;;-141.15;100.00;60025.94;5497228;26;19997;-71
2024/04/20 12:43:27;;;;;;;3.63;1.23;;;;;;;-141.15;100.00;60025.94;5505774;26;20365;-71
2024/04/20 12:45:57;;;;;;;3.33;1.55;;;;;;;-141.15;100.00;60025.94;5515730;26;19996;-73
2024/04/20 12:48:28;;;;;;;3.70;1.65;;;;;;;-141.15;100.00;60025.94;5513609;26;20012;-71
2024/04/20 12:50:58;;;;;;;4.57;1.45;;;;;;;-141.15;100.00;60025.94;5509360;26;20468;-71
2024/04/20 12:53:29;;;;;;;5.93;2.53;;;;;;;-141.15;100.00;60025.94;5508036;26;20428;-70
2024/04/20 12:55:59;;;;;;;4.00;2.30;;;;;;;-141.15;100.00;60025.94;5509768;26;20108;-71
2024/04/20 12:58:29;;;;;;;4.22;1.40;;;;;;;-141.15;100.00;60025.94;5516508;26;20004;-71
2024/04/20 13:01:00;;;;;;;3.00;1.33;;;;;;;-141.15;100.00;60025.94;5509185;26;19997;-71
2024/04/20 13:03:30;;;;;;;4.78;1.58;;;;;;;-141.15;100.00;60025.94;5510777;26;19997;-72
2024/04/20 13:06:05;;;;;;;6.00;2.50;;;;;;;-141.15;100.00;60025.94;5511894;26;19997;-70
2024/04/20 13:08:35;;;;;;;2.03;1.30;;;;;;;-141.15;100.00;60025.94;5517067;26;20001;-72
2024/04/20 13:11:06;;;;;;;3.53;1.33;;;;;;;-141.15;100.00;60025.94;5483813;26;20011;-71
2024/04/20 13:13:36;;;;;;;1.70;1.00;;;;;;;-141.15;100.00;60025.94;5514299;26;20448;-73
2024/04/20 13:16:06;;;;;;;3.83;1.77;;;;;;;-141.15;100.00;60025.94;5513049;26;20008;-74
2024/04/20 13:18:37;;;;;;;4.53;1.40;;;;;;;-141.15;100.00;60025.94;5514439;26;20352;-72
2024/04/20 13:21:07;;;;;;;4.45;1.02;;;;;;;-141.15;100.00;60025.94;5484422;26;20167;-72
2024/04/20 13:23:38;;;;;;;1.83;1.00;;;;;;;-141.15;100.00;60025.94;5482888;26;20440;-69
2024/04/20 13:26:08;;;;;;;2.47;0.90;;;;;;;-141.15;100.00;60025.94;5512373;26;20129;-73
2024/04/20 13:28:38;;;;;;;1.33;1.00;;;;;;;-141.15;100.00;60025.94;5513492;26;20507;-71
2024/04/20 13:31:09;;;;;;;4.18;2.30;;;;;;;-141.15;100.00;60025.94;5512027;26;20002;-71
2024/04/20 13:33:39;;;;;;;3.78;2.22;;;;;;;-141.15;100.00;60025.94;5506383;26;20001;-70
2024/04/20 13:36:09;;;;;;;4.25;2.33;;;;;;;-141.15;100.00;60025.94;5508566;26;19997;-72
2024/04/20 13:38:40;;;;;;;2.28;0.82;;;;;;;-141.15;100.00;60025.94;5510789;26;20071;-71